Time;durP1;ratioP1;P1;durP2;ratioP2;P2;SDS_P1;SDS_P2;PMS_P1;PMS_P2;Temp;Humidity;BMP_temperature;BMP_pressure;BME280_temperature;BME280_humidity;BME280_pressure;Samples;Min_cycle;Max_cycle;Signal;HPM_P1;HPM_P2
2020/12/29 00:00:08;;;;;;;3.37;2.80;;;;;;;9.66;51.00;93455.44;5034478;28;20299;-72
2020/12/29 00:02:34;;;;;;;4.67;2.30;;;;;;;9.59;51.89;93461.47;5034862;28;20199;-71
2020/12/29 00:04:59;;;;;;;4.90;2.37;;;;;;;9.69;51.50;93479.44;5034621;28;20161;-73
2020/12/29 00:07:25;;;;;;;3.93;2.67;;;;;;;9.59;51.99;93455.38;5016859;28;20599;-72
2020/12/29 00:09:50;;;;;;;2.73;2.00;;;;;;;9.71;51.57;93450.53;5034135;28;20196;-72
2020/12/29 00:12:16;;;;;;;2.33;1.93;;;;;;;9.62;51.33;93434.09;5034540;28;20211;-74
2020/12/29 00:14:41;;;;;;;2.80;1.70;;;;;;;9.68;50.65;93496.56;5034230;28;20199;-72
2020/12/29 00:17:07;;;;;;;1.50;1.40;;;;;;;10.01;49.09;93526.84;5034402;28;20192;-70
2020/12/29 00:19:32;;;;;;;2.90;1.23;;;;;;;10.36;47.72;93496.88;5034256;28;20196;-70
2020/12/29 00:21:58;;;;;;;1.20;1.10;;;;;;;10.50;47.39;93515.63;5034123;28;20215;-73
2020/12/29 00:24:23;;;;;;;1.40;1.10;;;;;;;10.72;47.36;93502.31;5033965;28;20251;-74
2020/12/29 00:26:49;;;;;;;2.93;1.37;;;;;;;10.94;46.86;93487.06;5033520;28;20172;-73
2020/12/29 00:29:15;;;;;;;2.23;1.33;;;;;;;10.94;46.76;93527.91;5016036;28;20191;-71
2020/12/29 00:31:40;;;;;;;2.83;1.77;;;;;;;10.90;46.45;93500.44;5034007;28;20187;-71
2020/12/29 00:34:06;;;;;;;2.03;1.23;;;;;;;10.88;46.55;93515.31;5034099;28;20195;-72
2020/12/29 00:36:31;;;;;;;2.80;1.43;;;;;;;10.94;46.49;93521.78;5033765;28;20176;-70
2020/12/29 00:38:57;;;;;;;7.63;2.00;;;;;;;10.90;46.76;93524.47;4998737;28;20646;-71
2020/12/29 00:41:23;;;;;;;4.40;2.43;;;;;;;10.73;47.22;93496.59;5033514;28;20296;-72
2020/12/29 00:43:49;;;;;;;1.77;1.60;;;;;;;10.64;47.57;93492.75;5033803;28;20183;-74
2020/12/29 00:46:19;;;;;;;2.03;1.00;;;;;;;10.72;47.50;93489.75;5033905;28;20591;-73
2020/12/29 00:48:44;;;;;;;3.27;1.07;;;;;;;10.94;48.44;93481.72;5033492;28;20179;-71
2020/12/29 00:51:18;;;;;;;1.17;1.10;;;;;;;11.02;47.29;93499.31;5033688;28;20590;-72
2020/12/29 00:53:44;;;;;;;4.03;1.20;;;;;;;11.09;47.71;93488.63;5031822;28;20287;-73
2020/12/29 00:56:10;;;;;;;3.70;1.00;;;;;;;11.10;47.46;93495.47;5015393;28;20697;-72
2020/12/29 00:58:36;;;;;;;3.90;1.10;;;;;;;11.13;48.17;93431.38;5033176;28;20176;-73
2020/12/29 01:01:02;;;;;;;0.90;0.90;;;;;;;11.09;47.84;93433.28;5033404;28;20176;-73
2020/12/29 01:03:27;;;;;;;8.33;1.53;;;;;;;11.23;47.72;93432.50;5033224;28;21216;-73
2020/12/29 01:05:53;;;;;;;4.73;1.17;;;;;;;11.23;47.06;93410.38;5015820;28;20686;-72
2020/12/29 01:08:19;;;;;;;9.27;1.33;;;;;;;11.24;47.34;93420.69;5033093;28;20202;-72
2020/12/29 01:10:45;;;;;;;6.93;1.50;;;;;;;11.18;47.08;93432.91;5033164;28;20603;-72
2020/12/29 01:13:13;;;;;;;5.17;1.47;;;;;;;11.14;47.17;93426.78;5033038;28;20593;-72
2020/12/29 01:15:39;;;;;;;12.63;1.53;;;;;;;11.25;47.08;93440.91;5033271;28;20172;-73
2020/12/29 01:18:05;;;;;;;7.50;1.10;;;;;;;11.32;46.72;93413.41;5033086;28;20579;-76
2020/12/29 01:20:30;;;;;;;27.20;1.30;;;;;;;11.38;46.41;93404.59;5015423;28;20721;-74
2020/12/29 01:22:56;;;;;;;3.73;0.90;;;;;;;11.33;46.30;93404.22;5033146;28;20263;-73
2020/12/29 01:25:23;;;;;;;0.93;0.87;;;;;;;11.33;46.52;93396.22;5032569;28;20169;-74
2020/12/29 01:27:49;;;;;;;2.30;1.17;;;;;;;11.43;46.19;93416.81;5032882;28;20594;-73
2020/12/29 01:30:15;;;;;;;1.33;1.23;;;;;;;11.38;46.18;93441.25;5032607;28;20591;-74
2020/12/29 01:32:41;;;;;;;0.83;0.73;;;;;;;11.38;45.88;93412.63;5032935;28;20172;-73
2020/12/29 01:35:07;;;;;;;4.20;0.80;;;;;;;11.40;46.02;93441.66;5032710;28;20575;-73
2020/12/29 01:37:33;;;;;;;7.57;1.17;;;;;;;11.42;45.60;93462.66;5014309;28;20598;-73
2020/12/29 01:39:59;;;;;;;22.30;2.30;;;;;;;11.26;45.90;93463.81;5032288;28;20694;-73
2020/12/29 01:42:24;;;;;;;19.47;2.17;;;;;;;11.23;46.71;93445.88;5032639;28;20594;-73
2020/12/29 01:44:50;;;;;;;2.23;1.93;;;;;;;11.22;47.32;93500.44;5032725;28;20180;-73
2020/12/29 01:47:16;;;;;;;1.40;1.00;;;;;;;10.84;47.71;93467.25;5032364;28;20176;-73
2020/12/29 01:49:43;;;;;;;4.60;1.00;;;;;;;11.10;46.64;93482.88;5015032;28;20618;-73
2020/12/29 01:52:08;;;;;;;2.87;1.20;;;;;;;10.99;46.30;93450.06;5032355;28;20593;-74
2020/12/29 01:54:34;;;;;;;7.70;1.37;;;;;;;11.19;45.66;93477.16;5032553;28;21041;-74
2020/12/29 01:57:00;;;;;;;2.60;1.00;;;;;;;11.26;46.33;93442.41;5014511;28;20176;-73
2020/12/29 01:59:25;;;;;;;2.20;0.90;;;;;;;11.25;45.75;93448.16;5032275;28;20793;-72
2020/12/29 02:01:51;;;;;;;1.07;0.97;;;;;;;11.39;44.85;93459.59;5014541;28;20725;-72
2020/12/29 02:04:16;;;;;;;2.47;0.80;;;;;;;11.48;45.14;93408.41;5032287;28;20731;-72
2020/12/29 02:06:42;;;;;;;6.27;1.00;;;;;;;11.46;44.60;93455.38;5032277;28;20647;-73
2020/12/29 02:09:08;;;;;;;1.80;0.87;;;;;;;11.52;44.67;93451.19;5031912;28;20168;-73
2020/12/29 02:11:34;;;;;;;3.63;0.90;;;;;;;11.61;44.38;93452.28;5032121;28;20195;-73
2020/12/29 02:14:00;;;;;;;1.27;1.10;;;;;;;11.60;44.39;93468.72;5031855;28;20618;-74
2020/12/29 02:16:28;;;;;;;6.93;1.23;;;;;;;11.56;44.11;93447.34;5032068;28;21241;-73
2020/12/29 02:18:53;;;;;;;4.90;1.17;;;;;;;11.48;44.13;93435.13;5014544;28;20974;-73
2020/12/29 02:21:19;;;;;;;2.73;0.83;;;;;;;11.63;43.87;93450.00;5031927;28;20682;-73
2020/12/29 02:23:44;;;;;;;8.47;1.10;;;;;;;11.65;43.86;93423.63;5031752;28;20643;-74
2020/12/29 02:26:10;;;;;;;1.33;1.00;;;;;;;11.65;43.78;93446.94;5031756;28;20267;-74
2020/12/29 02:28:35;;;;;;;1.40;1.00;;;;;;;11.56;44.40;93403.78;5031583;28;20304;-73
2020/12/29 02:31:01;;;;;;;3.93;1.37;;;;;;;11.55;44.80;93426.34;5031902;28;20271;-73
2020/12/29 02:33:27;;;;;;;5.27;1.03;;;;;;;11.64;44.80;93426.69;5031990;28;20591;-75
2020/12/29 02:35:52;;;;;;;1.57;1.10;;;;;;;11.57;44.75;93446.19;5031650;28;20557;-73
2020/12/29 02:38:24;;;;;;;3.40;0.80;;;;;;;11.58;44.97;93429.00;5031692;28;20218;-72
2020/12/29 02:40:50;;;;;;;8.80;1.30;;;;;;;11.58;44.78;93429.00;5031228;28;20774;-72
2020/12/29 02:43:15;;;;;;;5.80;1.30;;;;;;;11.59;44.40;93435.13;5031780;28;20586;-71
2020/12/29 02:45:41;;;;;;;3.50;0.90;;;;;;;11.58;44.07;93431.69;5031419;28;20694;-73
2020/12/29 02:48:07;;;;;;;4.80;0.90;;;;;;;11.56;43.86;93439.34;5031542;28;20612;-75
2020/12/29 02:50:32;;;;;;;1.80;0.90;;;;;;;11.62;43.94;93434.34;5030445;28;20322;-73
2020/12/29 02:52:58;;;;;;;4.67;1.30;;;;;;;11.58;43.86;93471.03;5031562;28;20211;-71
2020/12/29 02:55:24;;;;;;;1.70;0.80;;;;;;;11.72;43.30;93478.22;5031299;28;20545;-72
2020/12/29 02:57:50;;;;;;;2.63;1.00;;;;;;;11.67;43.38;93484.72;5031404;28;20255;-72
2020/12/29 03:00:15;;;;;;;4.77;1.33;;;;;;;11.69;43.36;93466.41;5031557;28;20215;-75
2020/12/29 03:02:41;;;;;;;0.77;0.77;;;;;;;11.68;43.28;93437.41;5031345;28;20180;-74
2020/12/29 03:05:07;;;;;;;1.67;1.00;;;;;;;11.68;43.24;93482.84;5031521;28;20272;-73
2020/12/29 03:07:32;;;;;;;1.00;0.80;;;;;;;11.70;43.22;93475.94;5031342;28;20164;-72
2020/12/29 03:09:58;;;;;;;0.80;0.80;;;;;;;11.61;42.96;93495.06;5013139;28;20611;-75
2020/12/29 03:12:23;;;;;;;0.90;0.90;;;;;;;11.78;42.90;93528.25;5031155;28;20746;-73
2020/12/29 03:14:49;;;;;;;2.77;0.87;;;;;;;11.76;42.83;93503.81;5013775;28;20279;-74
2020/12/29 03:17:14;;;;;;;1.33;0.90;;;;;;;11.76;42.70;93525.22;5031182;28;20269;-72
2020/12/29 03:19:39;;;;;;;1.00;0.93;;;;;;;11.91;42.20;93515.28;5031183;28;20296;-74
2020/12/29 03:22:05;;;;;;;2.30;0.80;;;;;;;11.85;42.66;93528.28;5031364;28;20238;-72
2020/12/29 03:24:30;;;;;;;4.30;1.10;;;;;;;11.81;42.43;93540.91;5031406;28;20207;-76
2020/12/29 03:26:56;;;;;;;6.37;0.97;;;;;;;11.83;42.31;93511.84;5012425;28;20256;-72
2020/12/29 03:29:22;;;;;;;2.73;0.93;;;;;;;11.83;42.44;93537.84;5013122;28;20203;-72
2020/12/29 03:31:48;;;;;;;2.80;1.10;;;;;;;11.77;42.51;93494.66;5013076;28;20192;-71
2020/12/29 03:34:37;;;;;;;2.23;1.00;;;;;;;11.88;42.36;93518.72;5030861;28;20258;-72
2020/12/29 03:37:02;;;;;;;1.50;1.13;;;;;;;11.77;42.82;93518.72;5016617;28;20668;-73
2020/12/29 03:39:27;;;;;;;2.50;1.00;;;;;;;11.82;42.68;93528.28;5030824;28;21064;-70
2020/12/29 03:41:53;;;;;;;1.17;1.07;;;;;;;11.84;41.89;93512.63;5030892;28;20172;-72
2020/12/29 03:44:18;;;;;;;0.80;0.80;;;;;;;11.90;42.01;93527.91;5030794;28;20173;-71
2020/12/29 03:46:44;;;;;;;2.87;1.10;;;;;;;11.90;41.56;93513.78;5031121;28;20211;-73
2020/12/29 03:49:09;;;;;;;1.90;0.87;;;;;;;11.96;41.17;93509.53;5030843;28;20204;-71
2020/12/29 03:51:35;;;;;;;0.80;0.80;;;;;;;12.02;41.07;93513.34;5031002;28;20679;-72
2020/12/29 03:54:00;;;;;;;2.50;0.93;;;;;;;12.03;41.19;93519.47;5030768;28;20310;-70
2020/12/29 03:56:26;;;;;;;1.17;1.07;;;;;;;11.96;41.38;93514.91;5030850;28;20616;-73
2020/12/29 03:58:51;;;;;;;2.73;0.80;;;;;;;12.03;41.02;93519.47;5030541;28;20569;-71
2020/12/29 04:01:17;;;;;;;1.80;0.70;;;;;;;12.05;40.80;93522.50;5032536;28;20176;-71
2020/12/29 04:03:43;;;;;;;1.23;0.87;;;;;;;12.08;40.38;93533.22;5034594;28;20208;-73
2020/12/29 04:06:10;;;;;;;1.93;1.10;;;;;;;12.08;40.44;93525.19;5034320;28;20176;-70
2020/12/29 04:08:35;;;;;;;1.43;0.80;;;;;;;12.13;40.45;93545.44;5034428;28;21045;-69
2020/12/29 04:11:01;;;;;;;1.33;0.90;;;;;;;12.09;40.43;93564.16;5034572;28;20586;-74
2020/12/29 04:13:26;;;;;;;0.80;0.80;;;;;;;12.12;40.26;93538.53;5034279;28;20172;-71
2020/12/29 04:15:52;;;;;;;1.27;0.90;;;;;;;12.11;40.52;93540.44;5034244;28;20252;-72
2020/12/29 04:18:17;;;;;;;2.30;0.90;;;;;;;12.08;40.72;93527.84;5034341;28;20171;-70
2020/12/29 04:20:43;;;;;;;1.00;0.90;;;;;;;12.12;40.14;93541.19;5034063;28;20199;-74
2020/12/29 04:23:08;;;;;;;2.97;0.90;;;;;;;12.06;40.80;93546.19;5034261;28;20648;-72
2020/12/29 04:25:34;;;;;;;0.80;0.80;;;;;;;12.13;40.51;93548.09;5034122;28;20210;-72
2020/12/29 04:27:59;;;;;;;5.37;1.73;;;;;;;12.12;40.39;93517.13;5033602;28;20565;-73
2020/12/29 04:30:25;;;;;;;1.07;1.00;;;;;;;12.14;40.38;93539.69;5034057;28;20694;-72
2020/12/29 04:32:50;;;;;;;2.60;0.90;;;;;;;12.16;40.70;93548.06;5033779;28;20212;-72
2020/12/29 04:35:16;;;;;;;0.90;0.90;;;;;;;12.13;40.18;93542.75;5034109;28;20169;-71
2020/12/29 04:37:42;;;;;;;2.33;1.53;;;;;;;12.17;40.38;93540.81;5033634;28;20181;-71
2020/12/29 04:40:07;;;;;;;1.60;0.97;;;;;;;12.22;40.37;93553.78;5033951;28;20203;-72
2020/12/29 04:42:33;;;;;;;2.43;0.80;;;;;;;12.22;39.86;93542.31;5033538;28;20173;-71
2020/12/29 04:44:58;;;;;;;3.80;1.20;;;;;;;12.33;39.98;93525.06;5016039;28;20199;-70
2020/12/29 04:47:27;;;;;;;8.63;0.90;;;;;;;12.35;40.10;93522.03;5033502;28;20199;-71
2020/12/29 04:49:52;;;;;;;0.80;0.80;;;;;;;12.27;40.63;93552.63;5033519;28;20182;-72
2020/12/29 04:52:18;;;;;;;2.87;0.93;;;;;;;12.18;40.47;93553.06;5016114;28;20575;-73
2020/12/29 04:54:43;;;;;;;3.83;0.80;;;;;;;12.13;40.67;93543.50;5015761;28;20213;-71
2020/12/29 04:57:09;;;;;;;1.80;0.90;;;;;;;12.21;40.50;93548.84;5033750;28;20168;-71
2020/12/29 04:59:35;;;;;;;0.90;0.90;;;;;;;12.16;40.91;93541.97;5015540;28;20698;-70
2020/12/29 05:02:01;;;;;;;1.13;0.90;;;;;;;12.21;41.04;93560.31;5033461;28;20601;-71
2020/12/29 05:04:28;;;;;;;1.93;1.00;;;;;;;12.18;40.92;93571.78;5033403;28;20188;-70
2020/12/29 05:06:54;;;;;;;1.27;0.80;;;;;;;12.24;40.87;93590.91;5033379;28;20169;-72
2020/12/29 05:09:22;;;;;;;1.00;1.00;;;;;;;12.29;40.45;93575.19;5033072;28;20644;-73
2020/12/29 05:11:47;;;;;;;0.80;0.77;;;;;;;12.30;40.21;93560.66;5015611;28;20707;-71
2020/12/29 05:14:13;;;;;;;8.13;1.60;;;;;;;12.21;40.97;93559.53;5032241;28;20599;-72
2020/12/29 05:16:41;;;;;;;5.50;1.30;;;;;;;12.31;40.72;93562.19;5033400;28;20172;-72
2020/12/29 05:19:08;;;;;;;1.03;0.93;;;;;;;12.27;41.22;93552.63;5033209;28;20635;-72
2020/12/29 05:21:34;;;;;;;3.17;1.30;;;;;;;12.17;41.62;93575.59;5015143;28;20968;-73
2020/12/29 05:24:13;;;;;;;2.80;1.00;;;;;;;12.92;52.76;93554.66;5033104;28;20575;-70
2020/12/29 05:26:39;;;;;;;0.80;0.80;;;;;;;12.40;41.33;93543.81;5024883;28;20673;-70
2020/12/29 05:29:08;;;;;;;2.37;0.97;;;;;;;12.29;41.83;93539.63;5032910;28;20586;-69
2020/12/29 05:31:34;;;;;;;1.50;1.20;;;;;;;12.21;41.98;93520.16;5032613;28;20180;-70
2020/12/29 05:34:00;;;;;;;5.00;1.20;;;;;;;12.04;42.23;93503.00;5032858;28;20637;-70
2020/12/29 05:36:27;;;;;;;2.23;0.83;;;;;;;12.10;42.13;93517.50;5032667;28;20589;-70
2020/12/29 05:39:02;;;;;;;1.23;1.03;;;;;;;12.17;42.57;93493.41;5015126;28;21217;-70
2020/12/29 05:41:28;;;;;;;1.07;0.90;;;;;;;12.21;42.11;93516.72;5032085;28;20590;-71
2020/12/29 05:44:00;;;;;;;1.00;0.90;;;;;;;12.21;42.10;93517.47;4998617;28;20614;-70
2020/12/29 05:46:26;;;;;;;1.33;0.80;;;;;;;12.03;42.54;93514.13;5015016;28;20176;-71
2020/12/29 05:48:58;;;;;;;3.07;0.87;;;;;;;12.10;42.31;93533.56;4998294;28;20594;-71
2020/12/29 05:51:24;;;;;;;1.20;1.10;;;;;;;12.08;42.65;93537.78;5032150;28;20172;-72
2020/12/29 05:53:50;;;;;;;1.83;0.90;;;;;;;12.38;48.36;93518.56;5015059;28;20952;-70
2020/12/29 05:56:15;;;;;;;0.90;0.90;;;;;;;12.32;42.22;93538.84;5031927;28;20264;-70
2020/12/29 05:58:41;;;;;;;2.40;1.23;;;;;;;12.26;41.89;93535.81;5014826;28;21017;-71
2020/12/29 06:01:08;;;;;;;1.77;1.00;;;;;;;12.26;42.57;93519.00;4998150;28;20196;-72
2020/12/29 06:03:33;;;;;;;1.37;1.00;;;;;;;12.28;42.54;93532.75;5032356;28;20598;-73
2020/12/29 06:05:59;;;;;;;4.20;1.10;;;;;;;12.37;47.36;93517.03;5014811;28;20583;-68
2020/12/29 06:08:27;;;;;;;4.57;1.00;;;;;;;12.73;42.93;93530.25;4998059;28;20188;-70
2020/12/29 06:10:59;;;;;;;2.33;1.27;;;;;;;12.51;41.90;93538.38;5031953;28;20733;-70
2020/12/29 06:13:27;;;;;;;7.27;1.03;;;;;;;12.40;42.05;93532.31;5014317;28;21141;-70
2020/12/29 06:15:57;;;;;;;4.03;1.17;;;;;;;12.25;42.89;93557.63;5013953;28;20595;-73
2020/12/29 06:18:33;;;;;;;1.20;1.00;;;;;;;12.27;42.68;93552.63;5031940;28;20591;-69
2020/12/29 06:21:05;;;;;;;7.67;1.13;;;;;;;12.22;42.97;93545.75;5031902;28;20800;-70
2020/12/29 06:23:47;;;;;;;1.00;0.87;;;;;;;12.20;42.88;93550.75;5031505;28;20626;-70
2020/12/29 06:26:19;;;;;;;1.00;0.90;;;;;;;12.23;42.74;93546.53;5016445;28;20593;-69
2020/12/29 06:28:49;;;;;;;7.03;0.97;;;;;;;12.26;42.50;93554.56;5031802;28;20668;-69
2020/12/29 06:31:30;;;;;;;2.83;1.37;;;;;;;12.35;42.30;93546.88;5031691;28;20602;-70
2020/12/29 06:33:56;;;;;;;4.57;1.00;;;;;;;12.28;42.28;93565.63;5031619;28;20605;-73
2020/12/29 06:36:23;;;;;;;1.03;1.00;;;;;;;12.33;42.24;93553.75;5031460;28;21219;-70
2020/12/29 06:38:49;;;;;;;3.33;1.10;;;;;;;12.32;42.31;93557.59;4997679;28;20639;-70
2020/12/29 06:41:17;;;;;;;1.60;0.90;;;;;;;12.34;42.03;93576.69;5013284;28;20720;-70
2020/12/29 06:43:42;;;;;;;0.77;0.70;;;;;;;12.39;42.06;93576.28;5014295;28;20168;-70
2020/12/29 06:46:12;;;;;;;1.10;1.00;;;;;;;12.42;42.34;93591.59;4997532;28;20614;-69
2020/12/29 06:48:38;;;;;;;1.17;0.87;;;;;;;12.51;41.95;93588.50;5031621;28;20181;-74
2020/12/29 06:51:11;;;;;;;0.87;0.83;;;;;;;12.52;41.96;93601.50;5028500;28;20656;-72
2020/12/29 06:53:39;;;;;;;4.73;0.90;;;;;;;12.52;42.42;93595.41;5035009;28;20227;-73
2020/12/29 06:56:05;;;;;;;2.63;2.40;;;;;;;12.59;42.25;93590.78;5051460;28;20594;-72
2020/12/29 06:58:31;;;;;;;1.37;0.90;;;;;;;12.65;42.65;93610.63;5051049;28;20592;-73
2020/12/29 07:01:17;;;;;;;0.90;0.90;;;;;;;12.73;42.15;93627.44;5051319;28;20249;-72
2020/12/29 07:03:43;;;;;;;2.90;1.00;;;;;;;12.65;42.05;93607.97;5037134;28;20598;-71
2020/12/29 07:06:08;;;;;;;0.93;0.90;;;;;;;12.67;42.11;93623.63;5013699;28;20582;-70
2020/12/29 07:08:37;;;;;;;1.50;0.87;;;;;;;12.77;42.59;93622.84;5031081;28;20179;-69
2020/12/29 07:11:18;;;;;;;1.00;0.97;;;;;;;12.92;42.49;93618.19;5031110;28;20195;-70
2020/12/29 07:13:50;;;;;;;1.03;0.93;;;;;;;12.86;41.93;93641.94;5030726;28;20663;-70
2020/12/29 07:16:21;;;;;;;0.90;0.90;;;;;;;12.78;42.58;93635.06;5031046;28;20590;-69
2020/12/29 07:18:46;;;;;;;1.50;0.90;;;;;;;12.75;41.89;93651.94;5031170;28;20563;-73
2020/12/29 07:21:30;;;;;;;4.67;1.00;;;;;;;12.73;42.15;93621.31;5028860;28;20745;-69
2020/12/29 07:23:55;;;;;;;2.73;1.00;;;;;;;12.78;42.33;93604.84;5030927;28;20180;-73
2020/12/29 07:26:22;;;;;;;3.50;1.10;;;;;;;12.77;42.37;93624.75;5030663;28;20672;-69
2020/12/29 07:28:53;;;;;;;1.00;1.00;;;;;;;12.81;42.72;93618.22;5012923;28;20677;-70
2020/12/29 07:31:18;;;;;;;2.77;1.10;;;;;;;12.92;42.45;93635.03;4997909;28;20623;-69
2020/12/29 07:33:54;;;;;;;1.83;1.10;;;;;;;12.98;41.87;93646.09;5036724;28;20693;-71
2020/12/29 07:36:20;;;;;;;1.03;0.93;;;;;;;12.92;42.21;93650.34;5020529;28;20607;-69
2020/12/29 07:38:47;;;;;;;6.80;1.43;;;;;;;12.96;42.26;93656.41;5014914;28;20583;-70
2020/12/29 07:41:16;;;;;;;1.63;0.90;;;;;;;12.87;42.42;93670.25;5014637;28;20741;-69
2020/12/29 07:43:42;;;;;;;1.77;1.10;;;;;;;12.96;42.29;93667.94;5016955;28;20607;-69
2020/12/29 07:46:08;;;;;;;2.80;0.90;;;;;;;12.92;42.34;93682.50;5034717;28;20594;-72
2020/12/29 07:48:34;;;;;;;2.20;0.90;;;;;;;12.94;42.50;93690.88;5016929;28;20613;-69
2020/12/29 07:51:00;;;;;;;2.10;1.10;;;;;;;13.01;42.81;93695.44;5034733;28;20192;-69
2020/12/29 07:53:25;;;;;;;3.63;0.90;;;;;;;13.09;41.90;93681.66;5043911;28;20180;-69
2020/12/29 07:55:51;;;;;;;0.80;0.80;;;;;;;13.18;42.01;93694.63;5038681;28;20647;-70
2020/12/29 07:58:16;;;;;;;7.50;1.00;;;;;;;13.03;42.12;93698.53;5030121;28;20163;-70
2020/12/29 08:00:42;;;;;;;1.53;1.00;;;;;;;13.18;42.15;93689.25;5045217;28;20226;-70
2020/12/29 08:03:09;;;;;;;1.53;1.03;;;;;;;13.22;41.92;93688.13;5054143;28;20247;-70
2020/12/29 08:05:35;;;;;;;1.43;1.03;;;;;;;13.19;42.14;93688.13;5054149;28;20175;-68
2020/12/29 08:08:02;;;;;;;1.50;1.00;;;;;;;13.13;42.42;93698.47;5054114;28;20624;-69
2020/12/29 08:10:32;;;;;;;1.57;1.47;;;;;;;13.06;42.83;93701.16;5036101;28;20191;-69
2020/12/29 08:12:59;;;;;;;1.77;0.90;;;;;;;13.22;42.22;93695.41;5054141;28;20588;-70
2020/12/29 08:15:27;;;;;;;2.33;1.00;;;;;;;13.29;42.52;93727.53;5053946;28;20578;-72
2020/12/29 08:18:12;;;;;;;4.57;1.00;;;;;;;13.22;42.35;93722.19;5054057;28;20621;-69
2020/12/29 08:20:46;;;;;;;1.90;1.10;;;;;;;13.41;42.25;93723.63;5053900;28;20629;-70
2020/12/29 08:23:13;;;;;;;2.10;1.10;;;;;;;13.46;41.68;93705.22;5053894;28;20609;-69
2020/12/29 08:25:38;;;;;;;0.97;0.83;;;;;;;13.42;41.64;93703.75;5053724;28;20657;-68
2020/12/29 08:28:04;;;;;;;3.30;1.00;;;;;;;13.42;41.62;93707.19;5053899;28;20645;-69
2020/12/29 08:30:29;;;;;;;1.13;1.03;;;;;;;13.44;40.81;93696.81;5053701;28;20646;-69
2020/12/29 08:32:56;;;;;;;1.20;0.90;;;;;;;13.56;41.62;93697.53;5036183;28;20168;-72
2020/12/29 08:35:22;;;;;;;3.30;1.13;;;;;;;13.59;41.24;93704.78;5035870;28;20171;-69
2020/12/29 08:38:05;;;;;;;0.90;0.90;;;;;;;13.67;41.04;93704.34;5036078;28;21048;-69
2020/12/29 08:40:32;;;;;;;0.90;0.90;;;;;;;13.52;40.99;93688.72;5035732;28;20796;-69
2020/12/29 08:42:59;;;;;;;0.97;0.77;;;;;;;13.61;40.59;93684.47;5036046;28;20584;-70
2020/12/29 08:45:26;;;;;;;1.83;0.90;;;;;;;13.45;41.59;93698.34;5036000;28;20684;-69
2020/12/29 08:47:56;;;;;;;3.50;0.87;;;;;;;13.49;40.67;93707.13;5053567;28;20590;-70
2020/12/29 08:50:29;;;;;;;3.40;1.00;;;;;;;13.46;41.64;93691.81;5036028;28;21159;-70
2020/12/29 08:53:03;;;;;;;3.17;1.20;;;;;;;13.39;42.03;93729.41;5053506;28;20576;-70
2020/12/29 08:55:30;;;;;;;2.70;0.90;;;;;;;13.52;42.09;93707.50;5053569;28;20947;-70
2020/12/29 08:57:56;;;;;;;2.07;1.07;;;;;;;13.33;42.36;93714.88;5053295;28;20589;-71
2020/12/29 09:00:22;;;;;;;5.57;2.70;;;;;;;13.48;40.98;93718.25;5053146;28;20629;-70
2020/12/29 09:02:48;;;;;;;1.53;1.07;;;;;;;13.47;41.84;93717.50;5053331;28;20590;-69
2020/12/29 09:05:19;;;;;;;3.03;0.90;;;;;;;13.49;42.17;93725.16;5052925;28;20203;-70
2020/12/29 09:07:45;;;;;;;2.17;1.40;;;;;;;13.52;42.57;93739.69;5035563;28;20198;-72
2020/12/29 09:10:12;;;;;;;2.20;1.20;;;;;;;13.69;41.68;93728.09;5053000;28;20636;-70
2020/12/29 09:12:37;;;;;;;8.13;1.57;;;;;;;14.05;40.77;93722.50;5053056;28;20202;-70
2020/12/29 09:15:09;;;;;;;6.10;1.40;;;;;;;14.39;40.55;93731.44;5053127;28;20582;-70
2020/12/29 09:17:35;;;;;;;3.07;1.20;;;;;;;14.41;40.01;93731.03;5053064;28;20677;-69
2020/12/29 09:20:25;;;;;;;4.70;1.07;;;;;;;14.60;40.39;93733.22;5052824;28;20683;-71
2020/12/29 09:23:12;;;;;;;3.30;1.10;;;;;;;14.93;39.70;93752.47;5053076;28;21042;-71
2020/12/29 09:25:38;;;;;;;3.07;1.27;;;;;;;14.93;39.33;93747.09;5034889;28;20589;-70
2020/12/29 09:28:10;;;;;;;3.83;1.10;;;;;;;15.17;38.65;93738.00;5052652;28;20679;-71
2020/12/29 09:30:35;;;;;;;1.57;1.00;;;;;;;15.27;38.81;93739.78;5052468;28;21135;-69
2020/12/29 09:33:01;;;;;;;3.53;1.10;;;;;;;15.10;39.96;93721.94;5052920;28;20632;-70
2020/12/29 09:35:27;;;;;;;2.27;0.90;;;;;;;15.34;39.16;93728.94;5052517;28;20542;-70
2020/12/29 09:37:57;;;;;;;1.03;0.97;;;;;;;15.31;38.56;93723.59;5052667;28;20625;-71
2020/12/29 09:40:22;;;;;;;3.83;1.63;;;;;;;15.33;38.55;93734.75;5034517;28;20334;-71
2020/12/29 09:42:48;;;;;;;3.17;0.97;;;;;;;15.41;38.17;93730.78;5052446;28;20688;-69
2020/12/29 09:45:17;;;;;;;2.87;1.00;;;;;;;15.48;37.88;93725.31;5052357;28;20265;-70
2020/12/29 09:47:43;;;;;;;2.37;1.20;;;;;;;15.71;37.82;93734.66;5052675;28;20225;-70
2020/12/29 09:50:08;;;;;;;3.67;1.23;;;;;;;15.74;37.47;93740.00;5052389;28;20578;-73
2020/12/29 09:52:34;;;;;;;1.70;0.93;;;;;;;16.03;37.55;93739.59;5052242;28;20214;-70
2020/12/29 09:54:59;;;;;;;3.60;0.90;;;;;;;16.00;37.57;93732.34;5052304;28;20195;-71
2020/12/29 09:57:25;;;;;;;2.83;1.30;;;;;;;16.06;39.58;93728.78;5051950;28;20166;-70
2020/12/29 09:59:51;;;;;;;1.77;1.07;;;;;;;15.95;35.89;93738.94;5051542;28;20230;-70
2020/12/29 10:02:16;;;;;;;1.60;0.90;;;;;;;16.00;36.56;93735.03;5052008;28;20172;-68
2020/12/29 10:04:42;;;;;;;1.53;0.90;;;;;;;15.70;37.31;93738.50;5052133;28;20261;-69
2020/12/29 10:07:07;;;;;;;2.33;1.10;;;;;;;15.67;35.82;93734.72;5051792;28;20271;-69
2020/12/29 10:09:33;;;;;;;1.73;1.20;;;;;;;15.73;36.50;93753.88;5052020;28;20172;-69
2020/12/29 10:11:58;;;;;;;1.10;1.00;;;;;;;15.71;36.61;93740.03;5051952;28;20657;-69
2020/12/29 10:14:24;;;;;;;1.17;1.00;;;;;;;15.66;37.14;93749.34;5051709;28;20192;-70
2020/12/29 10:16:49;;;;;;;2.97;1.50;;;;;;;15.69;36.51;93756.59;5051893;28;20183;-70
2020/12/29 10:19:15;;;;;;;2.80;1.10;;;;;;;15.89;36.16;93755.97;5051571;28;20646;-69
2020/12/29 10:21:43;;;;;;;1.53;1.07;;;;;;;15.96;36.60;93721.63;5051932;28;20182;-69
2020/12/29 10:24:10;;;;;;;2.90;1.17;;;;;;;15.45;38.18;93750.34;5051498;28;20606;-69
2020/12/29 10:26:35;;;;;;;2.20;1.10;;;;;;;15.26;37.80;93740.97;5051704;28;20180;-68
2020/12/29 10:29:01;;;;;;;2.00;1.40;;;;;;;15.20;38.52;93744.47;5051466;28;20954;-70
2020/12/29 10:31:26;;;;;;;2.80;1.30;;;;;;;15.05;38.73;93746.56;5051615;28;20210;-69
2020/12/29 10:33:52;;;;;;;3.80;1.10;;;;;;;14.98;38.61;93731.28;5051436;28;20171;-70
2020/12/29 10:36:17;;;;;;;2.33;1.17;;;;;;;15.05;37.84;93735.81;5051760;28;20168;-70
2020/12/29 10:38:43;;;;;;;2.70;1.40;;;;;;;15.00;37.95;93747.00;5051550;28;20267;-68
2020/12/29 10:41:08;;;;;;;3.80;1.00;;;;;;;14.99;38.05;93734.75;5048614;28;20214;-71
2020/12/29 10:43:34;;;;;;;3.10;1.10;;;;;;;14.96;38.21;93738.97;5036288;28;20229;-69
2020/12/29 10:45:59;;;;;;;4.27;1.60;;;;;;;14.86;38.28;93712.22;5031119;28;20172;-70
2020/12/29 10:48:25;;;;;;;1.27;1.17;;;;;;;15.05;38.17;93731.22;5031432;28;20270;-70
2020/12/29 10:50:50;;;;;;;4.00;1.20;;;;;;;15.15;37.89;93726.09;5031389;28;20176;-70
2020/12/29 10:53:16;;;;;;;3.40;1.40;;;;;;;15.05;37.95;93725.84;5013060;28;20196;-69
2020/12/29 10:55:41;;;;;;;1.47;1.17;;;;;;;15.04;37.51;93735.06;5030920;28;20261;-69
2020/12/29 10:58:07;;;;;;;3.17;1.30;;;;;;;14.89;37.93;93738.28;5031249;28;20686;-70
2020/12/29 11:00:32;;;;;;;5.27;1.40;;;;;;;14.87;37.59;93744.09;5031135;28;20199;-70
2020/12/29 11:02:58;;;;;;;2.73;1.57;;;;;;;14.73;38.65;93730.78;5031410;28;20175;-70
2020/12/29 11:05:23;;;;;;;1.90;1.20;;;;;;;14.81;37.81;93740.28;5031433;28;20553;-70
2020/12/29 11:07:49;;;;;;;2.27;1.33;;;;;;;14.96;38.10;93738.97;5031114;28;20330;-70
2020/12/29 11:10:14;;;;;;;6.00;1.53;;;;;;;14.91;38.94;93755.53;5030428;28;20164;-70
2020/12/29 11:12:40;;;;;;;1.20;1.10;;;;;;;14.88;38.04;93739.47;5013418;28;20180;-70
2020/12/29 11:15:05;;;;;;;5.23;1.23;;;;;;;14.91;38.44;93747.47;5031228;28;20557;-71
2020/12/29 11:17:32;;;;;;;1.83;1.20;;;;;;;15.07;38.56;93733.50;5030878;28;20210;-70
2020/12/29 11:19:58;;;;;;;3.90;1.20;;;;;;;14.98;36.57;93739.34;5030339;28;20242;-70
2020/12/29 11:22:23;;;;;;;1.10;1.00;;;;;;;14.93;37.62;93747.09;5030915;28;20622;-70
2020/12/29 11:24:49;;;;;;;1.90;1.10;;;;;;;14.87;38.08;93751.34;5031163;28;20204;-68
2020/12/29 11:27:14;;;;;;;2.80;1.40;;;;;;;14.85;38.47;93762.50;5030856;28;20602;-71
2020/12/29 11:29:40;;;;;;;1.37;1.00;;;;;;;14.82;38.55;93745.28;5036707;28;20191;-70
2020/12/29 11:32:05;;;;;;;1.20;1.10;;;;;;;14.77;38.50;93756.44;5045093;28;20207;-70